This is the latest recevied weather packets stored in our database for station/object KO4IDC-13. If no packets are shown the sender has not sent any weather packets the latest 1 day(s).
| Time | Temp. | Humidity | Pressure | Rain* | Wind** | Luminosity | Snow |
|---|---|---|---|---|---|---|---|
| 1777995153 | 15.56° C | 93% | 1012 hPa | 7.11 mm | 0.45 m/s, 191° | 47 W/m² | - |
| 1777994850 | 15.56° C | 92% | 1011.8 hPa | 7.11 mm | 2.68 m/s, 188° | 39 W/m² | - |
| 1777994546 | 16.11° C | 92% | 1011.9 hPa | 6.6 mm | 1.79 m/s, 198° | 27 W/m² | - |
| 1777994246 | 16.11° C | 90% | 1012.3 hPa | 7.87 mm | 1.79 m/s, 131° | 24 W/m² | - |
| 1777993943 | 17.22° C | 86% | 1012.2 hPa | 4.32 mm | 0.45 m/s, 229° | 18 W/m² | - |
| 1777993641 | 18.33° C | 78% | 1012 hPa | 0 mm | 4.92 m/s, 182° | 19 W/m² | - |
| 1777993338 | 18.89° C | 73% | 1011.9 hPa | 0 mm | 4.47 m/s, 189° | 15 W/m² | - |
| 1777993046 | 18.89° C | 72% | 1011.7 hPa | 0 mm | 1.34 m/s, 206° | 23 W/m² | - |
| 1777992737 | 18.89° C | 71% | 1011.5 hPa | 0 mm | 2.68 m/s, 199° | 63 W/m² | - |
| 1777992434 | 18.89° C | 71% | 1011.3 hPa | 0 mm | 2.68 m/s, 184° | 61 W/m² | - |
| 1777992132 | 18.89° C | 70% | 1011.3 hPa | 0 mm | 2.68 m/s, 104° | 119 W/m² | - |
| 1777991829 | 18.33° C | 71% | 1011.3 hPa | 0 mm | 0.89 m/s, 173° | 105 W/m² | - |
| 1777991526 | 18.33° C | 70% | 1011.2 hPa | 0 mm | 1.79 m/s, 178° | 135 W/m² | - |
| 1777991222 | 18.33° C | 71% | 1010.7 hPa | 0 mm | 1.34 m/s, 139° | 149 W/m² | - |
| 1777990920 | 18.33° C | 71% | 1011 hPa | 0 mm | 1.34 m/s, 148° | 98 W/m² | - |
| 1777990618 | 18.33° C | 71% | 1011 hPa | 0 mm | 1.34 m/s, 121° | 54 W/m² | - |
| 1777990314 | 18.33° C | 70% | 1010.9 hPa | 0 mm | 1.34 m/s, 190° | 52 W/m² | - |
| 1777990010 | 18.33° C | 71% | 1011.1 hPa | 0 mm | 0.89 m/s, 191° | 107 W/m² | - |
| 1777989708 | 18.33° C | 71% | 1011 hPa | 0 mm | 0.89 m/s, 90° | 112 W/m² | - |
| 1777989403 | 18.33° C | 70% | 1011.1 hPa | 0 mm | 0.89 m/s, 180° | 124 W/m² | - |
| 1777989100 | 17.78° C | 71% | 1010.8 hPa | 0 mm | 0.45 m/s, 137° | 105 W/m² | - |
| 1777988796 | 17.78° C | 71% | 1010.9 hPa | 0 mm | 0.89 m/s, 165° | 85 W/m² | - |
| 1777988494 | 17.78° C | 71% | 1010.9 hPa | 0 mm | 0.45 m/s, 185° | 77 W/m² | - |
| 1777988191 | 17.78° C | 71% | 1010.7 hPa | 0 mm | 0.89 m/s, 62° | 82 W/m² | - |
| 1777987887 | 17.78° C | 72% | 1010.9 hPa | 0 mm | 0.45 m/s, 179° | 84 W/m² | - |
* Rain latest hour (hover to see other rain measurements)
** Current wind speed in m/s (hover to see current wind gust speed)